Marlboro, Canada
Current Conditions -  °F | °C
As of 8:00 PM on Monday 20 Oct 2014 (Local Time) from CYET Reporting Station
Broken Clouds Broken Clouds  
Wind Chill: 54°   Ceiling: 16000
Heat Index: 54°   Visibility: 9mi
Dew Point: 36°   Wind: 2mph
Humidity: 51%   Direction: NA
Pressure: 29.52"   Gusts: NA
Location:  53.55°N, 116.77°W
Report Text: CYET 210200Z AUTO VRB02KT 9SM BKN160 BKN180 12/02 A2952 RMK SLP013 DENSITY ALT 3900FT
Loading
Personal Weather Stations






























Interactive Weather Map
Tropical Storm Tracking
New forecast layout! Learn more

10-Day Weather Forecast

Advertisements
Track Severe Weather on mobile